sensor_id;sensor_type;location;lat;lon;timestamp;P1;durP1;ratioP1;P2;durP2;ratioP2
72235;SDS011;60146;52.498;13.462;2023-03-03T00:01:47;22.10;;;7.70;;
72235;SDS011;60146;52.498;13.462;2023-03-03T00:04:12;21.17;;;7.40;;
72235;SDS011;60146;52.498;13.462;2023-03-03T00:06:38;22.93;;;7.17;;
72235;SDS011;60146;52.498;13.462;2023-03-03T00:09:03;24.33;;;7.83;;
72235;SDS011;60146;52.498;13.462;2023-03-03T00:11:28;23.43;;;6.93;;
72235;SDS011;60146;52.498;13.462;2023-03-03T00:13:55;21.00;;;7.70;;
72235;SDS011;60146;52.498;13.462;2023-03-03T00:18:49;25.23;;;6.60;;
72235;SDS011;60146;52.498;13.462;2023-03-03T00:21:18;25.93;;;7.40;;
72235;SDS011;60146;52.498;13.462;2023-03-03T00:23:44;18.95;;;6.88;;
72235;SDS011;60146;52.498;13.462;2023-03-03T00:26:20;21.90;;;6.17;;
72235;SDS011;60146;52.498;13.462;2023-03-03T00:28:47;20.60;;;6.83;;
72235;SDS011;60146;52.498;13.462;2023-03-03T00:31:17;20.80;;;7.43;;
72235;SDS011;60146;52.498;13.462;2023-03-03T00:33:47;21.52;;;6.65;;
72235;SDS011;60146;52.498;13.462;2023-03-03T00:38:40;22.63;;;7.80;;
72235;SDS011;60146;52.498;13.462;2023-03-03T00:41:18;23.73;;;7.83;;
72235;SDS011;60146;52.498;13.462;2023-03-03T00:43:45;22.00;;;7.23;;
72235;SDS011;60146;52.498;13.462;2023-03-03T00:46:10;20.90;;;6.40;;
72235;SDS011;60146;52.498;13.462;2023-03-03T00:48:40;20.43;;;6.53;;
72235;SDS011;60146;52.498;13.462;2023-03-03T00:53:40;19.97;;;7.13;;
72235;SDS011;60146;52.498;13.462;2023-03-03T00:56:05;22.20;;;6.60;;
72235;SDS011;60146;52.498;13.462;2023-03-03T00:58:31;22.53;;;6.67;;
72235;SDS011;60146;52.498;13.462;2023-03-03T01:00:56;21.33;;;7.57;;
72235;SDS011;60146;52.498;13.462;2023-03-03T01:03:23;23.30;;;6.87;;
72235;SDS011;60146;52.498;13.462;2023-03-03T01:05:49;21.83;;;6.80;;
72235;SDS011;60146;52.498;13.462;2023-03-03T01:08:14;23.30;;;7.07;;
72235;SDS011;60146;52.498;13.462;2023-03-03T01:10:41;20.93;;;6.70;;
72235;SDS011;60146;52.498;13.462;2023-03-03T01:13:07;23.87;;;6.73;;
72235;SDS011;60146;52.498;13.462;2023-03-03T01:15:34;19.93;;;7.03;;
72235;SDS011;60146;52.498;13.462;2023-03-03T01:17:59;19.37;;;6.07;;
72235;SDS011;60146;52.498;13.462;2023-03-03T01:20:24;22.97;;;7.03;;
72235;SDS011;60146;52.498;13.462;2023-03-03T01:22:49;22.00;;;7.00;;
72235;SDS011;60146;52.498;13.462;2023-03-03T01:25:15;23.47;;;7.20;;
72235;SDS011;60146;52.498;13.462;2023-03-03T01:27:40;20.87;;;6.53;;
72235;SDS011;60146;52.498;13.462;2023-03-03T01:30:06;19.23;;;6.47;;
72235;SDS011;60146;52.498;13.462;2023-03-03T01:32:31;25.33;;;7.83;;
72235;SDS011;60146;52.498;13.462;2023-03-03T01:34:56;24.97;;;7.23;;
72235;SDS011;60146;52.498;13.462;2023-03-03T01:37:22;22.13;;;8.07;;
72235;SDS011;60146;52.498;13.462;2023-03-03T01:39:50;19.30;;;6.43;;
72235;SDS011;60146;52.498;13.462;2023-03-03T01:42:15;25.20;;;7.60;;
72235;SDS011;60146;52.498;13.462;2023-03-03T01:44:41;21.37;;;7.33;;
72235;SDS011;60146;52.498;13.462;2023-03-03T01:47:27;23.17;;;7.73;;
72235;SDS011;60146;52.498;13.462;2023-03-03T01:52:30;25.03;;;7.43;;
72235;SDS011;60146;52.498;13.462;2023-03-03T01:54:58;20.10;;;7.10;;
72235;SDS011;60146;52.498;13.462;2023-03-03T01:57:30;19.93;;;7.03;;
72235;SDS011;60146;52.498;13.462;2023-03-03T02:02:21;26.20;;;6.82;;
72235;SDS011;60146;52.498;13.462;2023-03-03T02:04:46;22.27;;;6.80;;
72235;SDS011;60146;52.498;13.462;2023-03-03T02:07:13;21.07;;;6.73;;
72235;SDS011;60146;52.498;13.462;2023-03-03T02:12:17;21.87;;;7.47;;
72235;SDS011;60146;52.498;13.462;2023-03-03T02:14:42;23.73;;;6.93;;
72235;SDS011;60146;52.498;13.462;2023-03-03T02:17:08;23.87;;;7.70;;
72235;SDS011;60146;52.498;13.462;2023-03-03T02:22:04;22.30;;;6.87;;
72235;SDS011;60146;52.498;13.462;2023-03-03T02:24:34;22.77;;;7.93;;
72235;SDS011;60146;52.498;13.462;2023-03-03T02:27:01;21.87;;;7.93;;
72235;SDS011;60146;52.498;13.462;2023-03-03T02:29:26;23.50;;;7.53;;
72235;SDS011;60146;52.498;13.462;2023-03-03T02:31:51;23.00;;;8.03;;
72235;SDS011;60146;52.498;13.462;2023-03-03T02:34:17;27.47;;;8.60;;
72235;SDS011;60146;52.498;13.462;2023-03-03T02:36:42;23.97;;;7.73;;
72235;SDS011;60146;52.498;13.462;2023-03-03T02:39:08;26.23;;;9.13;;
72235;SDS011;60146;52.498;13.462;2023-03-03T02:46:30;26.83;;;8.27;;
72235;SDS011;60146;52.498;13.462;2023-03-03T02:48:56;27.57;;;8.33;;
72235;SDS011;60146;52.498;13.462;2023-03-03T02:51:26;29.60;;;8.40;;
72235;SDS011;60146;52.498;13.462;2023-03-03T02:53:51;28.23;;;9.20;;
72235;SDS011;60146;52.498;13.462;2023-03-03T02:56:17;25.37;;;9.13;;
72235;SDS011;60146;52.498;13.462;2023-03-03T02:58:43;25.03;;;8.47;;
72235;SDS011;60146;52.498;13.462;2023-03-03T03:01:08;26.17;;;8.77;;
72235;SDS011;60146;52.498;13.462;2023-03-03T03:03:33;25.43;;;8.80;;
72235;SDS011;60146;52.498;13.462;2023-03-03T03:05:59;26.40;;;8.83;;
72235;SDS011;60146;52.498;13.462;2023-03-03T03:08:24;28.40;;;9.53;;
72235;SDS011;60146;52.498;13.462;2023-03-03T03:10:50;39.40;;;9.73;;
72235;SDS011;60146;52.498;13.462;2023-03-03T03:13:15;31.63;;;9.47;;
72235;SDS011;60146;52.498;13.462;2023-03-03T03:15:40;24.67;;;8.83;;
72235;SDS011;60146;52.498;13.462;2023-03-03T03:18:06;27.97;;;8.73;;
72235;SDS011;60146;52.498;13.462;2023-03-03T03:20:34;28.90;;;9.00;;
72235;SDS011;60146;52.498;13.462;2023-03-03T03:23:00;28.40;;;9.03;;
72235;SDS011;60146;52.498;13.462;2023-03-03T03:25:25;26.73;;;9.30;;
72235;SDS011;60146;52.498;13.462;2023-03-03T03:27:50;29.37;;;8.87;;
72235;SDS011;60146;52.498;13.462;2023-03-03T03:30:15;22.87;;;8.77;;
72235;SDS011;60146;52.498;13.462;2023-03-03T03:32:41;23.23;;;7.93;;
72235;SDS011;60146;52.498;13.462;2023-03-03T03:35:06;25.63;;;9.20;;
72235;SDS011;60146;52.498;13.462;2023-03-03T03:37:39;25.35;;;8.50;;
72235;SDS011;60146;52.498;13.462;2023-03-03T03:42:43;27.00;;;8.17;;
72235;SDS011;60146;52.498;13.462;2023-03-03T03:45:09;25.27;;;8.53;;
72235;SDS011;60146;52.498;13.462;2023-03-03T03:47:34;26.00;;;8.37;;
72235;SDS011;60146;52.498;13.462;2023-03-03T03:50:00;21.83;;;7.53;;
72235;SDS011;60146;52.498;13.462;2023-03-03T03:52:25;29.80;;;8.30;;
72235;SDS011;60146;52.498;13.462;2023-03-03T03:54:50;24.57;;;8.10;;
72235;SDS011;60146;52.498;13.462;2023-03-03T03:57:16;26.33;;;8.87;;
72235;SDS011;60146;52.498;13.462;2023-03-03T03:59:41;29.90;;;8.33;;
72235;SDS011;60146;52.498;13.462;2023-03-03T04:02:07;27.20;;;8.23;;
72235;SDS011;60146;52.498;13.462;2023-03-03T04:04:32;25.77;;;8.17;;
72235;SDS011;60146;52.498;13.462;2023-03-03T04:06:57;25.20;;;8.13;;
72235;SDS011;60146;52.498;13.462;2023-03-03T04:09:23;34.67;;;9.00;;
72235;SDS011;60146;52.498;13.462;2023-03-03T04:11:48;34.17;;;9.80;;
72235;SDS011;60146;52.498;13.462;2023-03-03T04:14:14;22.60;;;6.60;;
72235;SDS011;60146;52.498;13.462;2023-03-03T04:16:39;26.27;;;8.00;;
72235;SDS011;60146;52.498;13.462;2023-03-03T04:19:04;32.00;;;8.83;;
72235;SDS011;60146;52.498;13.462;2023-03-03T04:21:30;25.93;;;8.10;;
72235;SDS011;60146;52.498;13.462;2023-03-03T04:23:55;26.93;;;8.47;;
72235;SDS011;60146;52.498;13.462;2023-03-03T04:26:21;24.03;;;7.30;;
72235;SDS011;60146;52.498;13.462;2023-03-03T04:28:46;24.23;;;7.67;;
72235;SDS011;60146;52.498;13.462;2023-03-03T04:31:12;27.63;;;9.17;;
72235;SDS011;60146;52.498;13.462;2023-03-03T04:33:37;26.07;;;8.83;;
72235;SDS011;60146;52.498;13.462;2023-03-03T04:36:02;29.30;;;8.20;;
72235;SDS011;60146;52.498;13.462;2023-03-03T04:38:28;29.67;;;8.90;;
72235;SDS011;60146;52.498;13.462;2023-03-03T04:40:54;29.57;;;8.87;;
72235;SDS011;60146;52.498;13.462;2023-03-03T04:43:20;32.57;;;9.93;;
72235;SDS011;60146;52.498;13.462;2023-03-03T04:45:45;29.37;;;9.03;;
72235;SDS011;60146;52.498;13.462;2023-03-03T04:48:10;35.07;;;9.97;;
72235;SDS011;60146;52.498;13.462;2023-03-03T04:50:36;28.37;;;8.30;;
72235;SDS011;60146;52.498;13.462;2023-03-03T04:53:01;26.13;;;7.90;;
72235;SDS011;60146;52.498;13.462;2023-03-03T04:55:26;29.00;;;9.20;;
72235;SDS011;60146;52.498;13.462;2023-03-03T04:57:52;32.13;;;9.17;;
72235;SDS011;60146;52.498;13.462;2023-03-03T05:00:17;31.37;;;9.13;;
72235;SDS011;60146;52.498;13.462;2023-03-03T05:02:42;24.93;;;7.97;;
72235;SDS011;60146;52.498;13.462;2023-03-03T05:05:08;25.37;;;7.50;;
72235;SDS011;60146;52.498;13.462;2023-03-03T05:07:34;27.90;;;8.27;;
72235;SDS011;60146;52.498;13.462;2023-03-03T05:10:00;26.43;;;8.90;;
72235;SDS011;60146;52.498;13.462;2023-03-03T05:12:25;25.57;;;7.63;;
72235;SDS011;60146;52.498;13.462;2023-03-03T05:14:51;22.97;;;7.83;;
72235;SDS011;60146;52.498;13.462;2023-03-03T05:17:16;29.73;;;8.87;;
72235;SDS011;60146;52.498;13.462;2023-03-03T05:19:42;31.13;;;9.27;;
72235;SDS011;60146;52.498;13.462;2023-03-03T05:22:07;31.47;;;8.43;;
72235;SDS011;60146;52.498;13.462;2023-03-03T05:24:32;27.70;;;8.83;;
72235;SDS011;60146;52.498;13.462;2023-03-03T05:26:57;26.90;;;7.90;;
72235;SDS011;60146;52.498;13.462;2023-03-03T05:29:23;28.03;;;9.07;;
72235;SDS011;60146;52.498;13.462;2023-03-03T05:31:48;31.00;;;8.90;;
72235;SDS011;60146;52.498;13.462;2023-03-03T05:34:13;34.17;;;10.73;;
72235;SDS011;60146;52.498;13.462;2023-03-03T05:36:39;35.03;;;10.00;;
72235;SDS011;60146;52.498;13.462;2023-03-03T05:39:04;35.93;;;9.87;;
72235;SDS011;60146;52.498;13.462;2023-03-03T05:41:29;35.27;;;9.80;;
72235;SDS011;60146;52.498;13.462;2023-03-03T05:43:55;34.30;;;10.13;;
72235;SDS011;60146;52.498;13.462;2023-03-03T05:46:20;40.00;;;11.00;;
72235;SDS011;60146;52.498;13.462;2023-03-03T05:48:45;36.17;;;11.40;;
72235;SDS011;60146;52.498;13.462;2023-03-03T05:51:11;31.63;;;8.80;;
72235;SDS011;60146;52.498;13.462;2023-03-03T05:53:36;36.77;;;10.67;;
72235;SDS011;60146;52.498;13.462;2023-03-03T05:56:01;37.63;;;9.73;;
72235;SDS011;60146;52.498;13.462;2023-03-03T05:58:27;33.07;;;9.93;;
72235;SDS011;60146;52.498;13.462;2023-03-03T06:00:52;35.23;;;10.77;;
72235;SDS011;60146;52.498;13.462;2023-03-03T06:03:17;33.77;;;9.70;;
72235;SDS011;60146;52.498;13.462;2023-03-03T06:05:43;43.30;;;11.23;;
72235;SDS011;60146;52.498;13.462;2023-03-03T06:08:08;42.57;;;10.97;;
72235;SDS011;60146;52.498;13.462;2023-03-03T06:10:34;42.33;;;11.93;;
72235;SDS011;60146;52.498;13.462;2023-03-03T06:12:59;34.93;;;10.10;;
72235;SDS011;60146;52.498;13.462;2023-03-03T06:15:24;34.47;;;10.47;;
72235;SDS011;60146;52.498;13.462;2023-03-03T06:17:50;37.60;;;10.40;;
72235;SDS011;60146;52.498;13.462;2023-03-03T06:20:15;33.67;;;10.10;;
72235;SDS011;60146;52.498;13.462;2023-03-03T06:22:40;36.23;;;10.23;;
72235;SDS011;60146;52.498;13.462;2023-03-03T06:25:06;38.37;;;10.43;;
72235;SDS011;60146;52.498;13.462;2023-03-03T06:27:31;37.20;;;10.13;;
72235;SDS011;60146;52.498;13.462;2023-03-03T06:29:56;35.87;;;9.73;;
72235;SDS011;60146;52.498;13.462;2023-03-03T06:32:22;33.27;;;10.37;;
72235;SDS011;60146;52.498;13.462;2023-03-03T06:34:47;30.30;;;8.47;;
72235;SDS011;60146;52.498;13.462;2023-03-03T06:37:12;40.00;;;10.97;;
72235;SDS011;60146;52.498;13.462;2023-03-03T06:39:37;36.83;;;10.60;;
72235;SDS011;60146;52.498;13.462;2023-03-03T06:42:03;29.27;;;8.97;;
72235;SDS011;60146;52.498;13.462;2023-03-03T06:44:28;24.97;;;8.40;;
72235;SDS011;60146;52.498;13.462;2023-03-03T06:46:53;25.27;;;8.47;;
72235;SDS011;60146;52.498;13.462;2023-03-03T06:49:21;29.03;;;8.63;;
72235;SDS011;60146;52.498;13.462;2023-03-03T06:51:46;31.90;;;9.53;;
72235;SDS011;60146;52.498;13.462;2023-03-03T06:54:13;31.70;;;9.03;;
72235;SDS011;60146;52.498;13.462;2023-03-03T06:56:38;36.40;;;9.73;;
72235;SDS011;60146;52.498;13.462;2023-03-03T06:59:14;33.60;;;9.67;;
72235;SDS011;60146;52.498;13.462;2023-03-03T07:01:40;33.37;;;9.30;;
72235;SDS011;60146;52.498;13.462;2023-03-03T07:04:48;37.67;;;9.83;;
72235;SDS011;60146;52.498;13.462;2023-03-03T07:06:55;35.07;;;10.50;;
72235;SDS011;60146;52.498;13.462;2023-03-03T07:09:23;33.63;;;9.43;;
72235;SDS011;60146;52.498;13.462;2023-03-03T07:11:50;31.33;;;8.90;;
72235;SDS011;60146;52.498;13.462;2023-03-03T07:14:17;34.33;;;10.03;;
72235;SDS011;60146;52.498;13.462;2023-03-03T07:16:42;39.67;;;10.63;;
72235;SDS011;60146;52.498;13.462;2023-03-03T07:19:22;41.87;;;10.70;;
72235;SDS011;60146;52.498;13.462;2023-03-03T07:21:49;38.43;;;9.90;;
72235;SDS011;60146;52.498;13.462;2023-03-03T07:26:46;34.23;;;9.07;;
72235;SDS011;60146;52.498;13.462;2023-03-03T07:29:27;39.10;;;9.60;;
72235;SDS011;60146;52.498;13.462;2023-03-03T07:31:53;34.57;;;9.73;;
72235;SDS011;60146;52.498;13.462;2023-03-03T07:34:20;34.70;;;9.30;;
72235;SDS011;60146;52.498;13.462;2023-03-03T07:36:46;32.73;;;9.03;;
72235;SDS011;60146;52.498;13.462;2023-03-03T07:41:47;37.40;;;10.33;;
72235;SDS011;60146;52.498;13.462;2023-03-03T07:44:21;39.57;;;10.00;;
72235;SDS011;60146;52.498;13.462;2023-03-03T07:46:50;38.80;;;9.97;;
72235;SDS011;60146;52.498;13.462;2023-03-03T07:49:20;40.43;;;10.53;;
72235;SDS011;60146;52.498;13.462;2023-03-03T07:51:46;46.00;;;11.57;;
72235;SDS011;60146;52.498;13.462;2023-03-03T07:59:21;42.63;;;10.98;;
72235;SDS011;60146;52.498;13.462;2023-03-03T08:01:50;39.35;;;11.10;;
72235;SDS011;60146;52.498;13.462;2023-03-03T08:04:20;41.87;;;11.73;;
72235;SDS011;60146;52.498;13.462;2023-03-03T08:06:47;37.33;;;10.87;;
72235;SDS011;60146;52.498;13.462;2023-03-03T08:14:09;36.00;;;10.60;;
72235;SDS011;60146;52.498;13.462;2023-03-03T08:16:37;38.42;;;11.45;;
72235;SDS011;60146;52.498;13.462;2023-03-03T08:19:02;41.03;;;11.10;;
72235;SDS011;60146;52.498;13.462;2023-03-03T08:21:28;38.17;;;11.63;;
72235;SDS011;60146;52.498;13.462;2023-03-03T08:23:55;42.90;;;11.87;;
72235;SDS011;60146;52.498;13.462;2023-03-03T08:26:22;33.80;;;9.87;;
72235;SDS011;60146;52.498;13.462;2023-03-03T08:28:47;32.67;;;9.50;;
72235;SDS011;60146;52.498;13.462;2023-03-03T08:31:13;46.07;;;11.67;;
72235;SDS011;60146;52.498;13.462;2023-03-03T08:33:38;47.10;;;11.30;;
72235;SDS011;60146;52.498;13.462;2023-03-03T08:36:04;44.77;;;11.07;;
72235;SDS011;60146;52.498;13.462;2023-03-03T08:38:29;45.97;;;12.23;;
72235;SDS011;60146;52.498;13.462;2023-03-03T08:40:55;49.27;;;11.77;;
72235;SDS011;60146;52.498;13.462;2023-03-03T08:43:20;48.30;;;13.23;;
72235;SDS011;60146;52.498;13.462;2023-03-03T08:45:48;53.13;;;13.10;;
72235;SDS011;60146;52.498;13.462;2023-03-03T08:48:14;53.53;;;12.30;;
72235;SDS011;60146;52.498;13.462;2023-03-03T08:50:39;43.20;;;10.50;;
72235;SDS011;60146;52.498;13.462;2023-03-03T08:53:05;34.50;;;9.10;;
72235;SDS011;60146;52.498;13.462;2023-03-03T08:55:30;29.77;;;8.27;;
72235;SDS011;60146;52.498;13.462;2023-03-03T08:57:56;30.40;;;9.93;;
72235;SDS011;60146;52.498;13.462;2023-03-03T09:00:21;38.70;;;9.37;;
72235;SDS011;60146;52.498;13.462;2023-03-03T09:02:47;31.53;;;8.20;;
72235;SDS011;60146;52.498;13.462;2023-03-03T09:05:14;35.60;;;9.67;;
72235;SDS011;60146;52.498;13.462;2023-03-03T09:07:40;35.23;;;10.20;;
72235;SDS011;60146;52.498;13.462;2023-03-03T09:10:06;33.10;;;9.27;;
72235;SDS011;60146;52.498;13.462;2023-03-03T09:12:40;36.93;;;10.93;;
72235;SDS011;60146;52.498;13.462;2023-03-03T09:15:17;31.07;;;9.33;;
72235;SDS011;60146;52.498;13.462;2023-03-03T09:17:43;32.63;;;9.23;;
72235;SDS011;60146;52.498;13.462;2023-03-03T09:20:23;36.83;;;10.60;;
72235;SDS011;60146;52.498;13.462;2023-03-03T09:22:49;29.42;;;9.55;;
72235;SDS011;60146;52.498;13.462;2023-03-03T09:25:34;38.17;;;11.03;;
72235;SDS011;60146;52.498;13.462;2023-03-03T09:28:00;29.10;;;9.53;;
72235;SDS011;60146;52.498;13.462;2023-03-03T09:32:51;36.83;;;9.83;;
72235;SDS011;60146;52.498;13.462;2023-03-03T09:35:38;38.13;;;11.00;;
72235;SDS011;60146;52.498;13.462;2023-03-03T09:43:10;40.73;;;11.03;;
72235;SDS011;60146;52.498;13.462;2023-03-03T09:45:42;51.57;;;12.67;;
72235;SDS011;60146;52.498;13.462;2023-03-03T09:51:01;42.10;;;11.57;;
72235;SDS011;60146;52.498;13.462;2023-03-03T09:56:15;36.37;;;10.53;;
72235;SDS011;60146;52.498;13.462;2023-03-03T10:11:56;33.60;;;10.93;;
72235;SDS011;60146;52.498;13.462;2023-03-03T10:14:35;33.57;;;11.07;;
72235;SDS011;60146;52.498;13.462;2023-03-03T10:22:05;30.97;;;10.47;;
72235;SDS011;60146;52.498;13.462;2023-03-03T10:24:35;31.87;;;11.23;;
72235;SDS011;60146;52.498;13.462;2023-03-03T10:53:00;33.17;;;10.40;;
72235;SDS011;60146;52.498;13.462;2023-03-03T10:55:33;36.07;;;9.97;;
72235;SDS011;60146;52.498;13.462;2023-03-03T11:00:48;24.47;;;8.70;;
72235;SDS011;60146;52.498;13.462;2023-03-03T11:05:52;23.37;;;7.50;;
72235;SDS011;60146;52.498;13.462;2023-03-03T11:08:20;21.77;;;8.23;;
72235;SDS011;60146;52.498;13.462;2023-03-03T11:10:51;24.77;;;8.03;;
72235;SDS011;60146;52.498;13.462;2023-03-03T11:15:53;29.00;;;9.77;;
72235;SDS011;60146;52.498;13.462;2023-03-03T11:18:44;34.80;;;10.43;;
72235;SDS011;60146;52.498;13.462;2023-03-03T11:21:14;42.83;;;12.47;;
72235;SDS011;60146;52.498;13.462;2023-03-03T11:26:32;43.60;;;11.30;;
72235;SDS011;60146;52.498;13.462;2023-03-03T11:39:25;35.23;;;10.27;;
72235;SDS011;60146;52.498;13.462;2023-03-03T11:47:28;33.97;;;11.27;;
72235;SDS011;60146;52.498;13.462;2023-03-03T11:50:04;42.53;;;12.93;;
72235;SDS011;60146;52.498;13.462;2023-03-03T11:55:16;32.97;;;11.03;;
72235;SDS011;60146;52.498;13.462;2023-03-03T12:00:28;36.73;;;12.47;;
72235;SDS011;60146;52.498;13.462;2023-03-03T12:05:38;39.63;;;12.27;;
72235;SDS011;60146;52.498;13.462;2023-03-03T12:08:12;39.50;;;12.47;;
72235;SDS011;60146;52.498;13.462;2023-03-03T12:18:17;37.53;;;11.90;;
72235;SDS011;60146;52.498;13.462;2023-03-03T12:28:10;41.30;;;13.43;;
72235;SDS011;60146;52.498;13.462;2023-03-03T12:38:41;26.60;;;7.77;;
72235;SDS011;60146;52.498;13.462;2023-03-03T12:41:14;23.90;;;8.00;;
72235;SDS011;60146;52.498;13.462;2023-03-03T12:46:22;31.97;;;8.87;;
72235;SDS011;60146;52.498;13.462;2023-03-03T12:48:49;23.83;;;8.07;;
72235;SDS011;60146;52.498;13.462;2023-03-03T12:51:27;21.87;;;7.50;;
72235;SDS011;60146;52.498;13.462;2023-03-03T12:56:33;33.03;;;8.53;;
72235;SDS011;60146;52.498;13.462;2023-03-03T12:59:03;21.93;;;7.53;;
72235;SDS011;60146;52.498;13.462;2023-03-03T13:01:41;26.63;;;8.23;;
72235;SDS011;60146;52.498;13.462;2023-03-03T13:04:18;27.47;;;7.47;;
72235;SDS011;60146;52.498;13.462;2023-03-03T13:09:55;29.87;;;10.50;;
72235;SDS011;60146;52.498;13.462;2023-03-03T13:17:18;28.23;;;9.97;;
72235;SDS011;60146;52.498;13.462;2023-03-03T13:19:51;33.53;;;11.15;;
72235;SDS011;60146;52.498;13.462;2023-03-03T13:27:43;27.17;;;8.70;;
72235;SDS011;60146;52.498;13.462;2023-03-03T13:30:22;24.43;;;8.20;;
72235;SDS011;60146;52.498;13.462;2023-03-03T13:32:58;35.30;;;10.93;;
72235;SDS011;60146;52.498;13.462;2023-03-03T13:35:42;36.63;;;10.97;;
72235;SDS011;60146;52.498;13.462;2023-03-03T13:38:11;45.87;;;12.93;;
72235;SDS011;60146;52.498;13.462;2023-03-03T13:40:42;34.70;;;11.83;;
72235;SDS011;60146;52.498;13.462;2023-03-03T13:43:09;34.60;;;11.80;;
72235;SDS011;60146;52.498;13.462;2023-03-03T13:50:50;39.43;;;13.03;;
72235;SDS011;60146;52.498;13.462;2023-03-03T13:55:43;34.17;;;12.33;;
72235;SDS011;60146;52.498;13.462;2023-03-03T13:58:45;32.43;;;12.33;;
72235;SDS011;60146;52.498;13.462;2023-03-03T14:03:51;23.33;;;8.67;;
72235;SDS011;60146;52.498;13.462;2023-03-03T14:06:20;29.50;;;9.13;;
72235;SDS011;60146;52.498;13.462;2023-03-03T14:08:53;29.67;;;9.40;;
72235;SDS011;60146;52.498;13.462;2023-03-03T14:19:14;32.73;;;11.27;;
72235;SDS011;60146;52.498;13.462;2023-03-03T14:24:25;36.47;;;11.83;;
72235;SDS011;60146;52.498;13.462;2023-03-03T14:26:51;27.73;;;9.53;;
72235;SDS011;60146;52.498;13.462;2023-03-03T14:31:43;29.37;;;9.83;;
72235;SDS011;60146;52.498;13.462;2023-03-03T14:34:13;24.60;;;9.40;;
72235;SDS011;60146;52.498;13.462;2023-03-03T14:36:50;21.20;;;8.07;;
72235;SDS011;60146;52.498;13.462;2023-03-03T14:39:35;21.17;;;8.27;;
72235;SDS011;60146;52.498;13.462;2023-03-03T14:42:04;27.17;;;8.90;;
72235;SDS011;60146;52.498;13.462;2023-03-03T14:44:35;25.57;;;9.63;;
72235;SDS011;60146;52.498;13.462;2023-03-03T14:49:35;24.47;;;8.70;;
72235;SDS011;60146;52.498;13.462;2023-03-03T14:54:41;18.10;;;6.77;;
72235;SDS011;60146;52.498;13.462;2023-03-03T15:02:58;22.30;;;8.70;;
72235;SDS011;60146;52.498;13.462;2023-03-03T15:05:24;25.50;;;8.50;;
72235;SDS011;60146;52.498;13.462;2023-03-03T15:08:12;22.43;;;7.40;;
72235;SDS011;60146;52.498;13.462;2023-03-03T15:10:39;22.30;;;6.93;;
72235;SDS011;60146;52.498;13.462;2023-03-03T15:18:10;19.50;;;6.78;;
72235;SDS011;60146;52.498;13.462;2023-03-03T15:25:56;21.27;;;7.13;;
72235;SDS011;60146;52.498;13.462;2023-03-03T15:36:21;19.80;;;7.43;;
72235;SDS011;60146;52.498;13.462;2023-03-03T15:43:40;21.50;;;6.90;;
72235;SDS011;60146;52.498;13.462;2023-03-03T15:46:24;18.83;;;6.20;;
72235;SDS011;60146;52.498;13.462;2023-03-03T15:48:55;23.30;;;6.13;;
72235;SDS011;60146;52.498;13.462;2023-03-03T15:51:46;18.70;;;6.10;;
72235;SDS011;60146;52.498;13.462;2023-03-03T15:56:47;17.87;;;6.30;;
72235;SDS011;60146;52.498;13.462;2023-03-03T16:04:33;20.90;;;7.00;;
72235;SDS011;60146;52.498;13.462;2023-03-03T16:12:06;16.53;;;6.13;;
72235;SDS011;60146;52.498;13.462;2023-03-03T16:19:40;22.87;;;7.00;;
72235;SDS011;60146;52.498;13.462;2023-03-03T16:27:14;23.27;;;7.33;;
72235;SDS011;60146;52.498;13.462;2023-03-03T16:32:11;20.20;;;6.90;;
72235;SDS011;60146;52.498;13.462;2023-03-03T16:34:53;20.60;;;7.88;;
72235;SDS011;60146;52.498;13.462;2023-03-03T16:37:27;19.87;;;7.03;;
72235;SDS011;60146;52.498;13.462;2023-03-03T16:39:55;25.60;;;7.87;;
72235;SDS011;60146;52.498;13.462;2023-03-03T16:50:24;28.43;;;8.40;;
72235;SDS011;60146;52.498;13.462;2023-03-03T16:52:55;21.53;;;7.57;;
72235;SDS011;60146;52.498;13.462;2023-03-03T16:55:26;24.93;;;8.20;;
72235;SDS011;60146;52.498;13.462;2023-03-03T16:57:58;24.47;;;8.40;;
72235;SDS011;60146;52.498;13.462;2023-03-03T17:00:27;23.00;;;8.30;;
72235;SDS011;60146;52.498;13.462;2023-03-03T17:10:41;23.67;;;7.73;;
72235;SDS011;60146;52.498;13.462;2023-03-03T17:18:09;20.20;;;7.43;;
72235;SDS011;60146;52.498;13.462;2023-03-03T17:20:46;20.70;;;7.70;;
72235;SDS011;60146;52.498;13.462;2023-03-03T17:23:15;23.83;;;7.93;;
72235;SDS011;60146;52.498;13.462;2023-03-03T17:25:47;25.53;;;8.63;;
72235;SDS011;60146;52.498;13.462;2023-03-03T17:30:47;22.33;;;7.80;;
72235;SDS011;60146;52.498;13.462;2023-03-03T17:33:35;22.83;;;8.30;;
72235;SDS011;60146;52.498;13.462;2023-03-03T17:43:39;24.63;;;8.33;;
72235;SDS011;60146;52.498;13.462;2023-03-03T17:46:08;19.67;;;7.70;;
72235;SDS011;60146;52.498;13.462;2023-03-03T17:56:15;22.57;;;8.53;;
72235;SDS011;60146;52.498;13.462;2023-03-03T18:11:48;24.70;;;9.00;;
72235;SDS011;60146;52.498;13.462;2023-03-03T18:22:40;18.13;;;7.17;;
72235;SDS011;60146;52.498;13.462;2023-03-03T18:25:10;24.10;;;8.03;;
72235;SDS011;60146;52.498;13.462;2023-03-03T18:27:46;22.90;;;8.27;;
72235;SDS011;60146;52.498;13.462;2023-03-03T18:32:41;24.93;;;8.93;;
72235;SDS011;60146;52.498;13.462;2023-03-03T18:35:25;18.87;;;6.77;;
72235;SDS011;60146;52.498;13.462;2023-03-03T18:37:52;23.43;;;8.00;;
72235;SDS011;60146;52.498;13.462;2023-03-03T18:42:43;22.43;;;8.30;;
72235;SDS011;60146;52.498;13.462;2023-03-03T18:53:07;22.90;;;8.57;;
72235;SDS011;60146;52.498;13.462;2023-03-03T18:55:52;22.23;;;6.95;;
72235;SDS011;60146;52.498;13.462;2023-03-03T19:00:57;20.30;;;7.37;;
72235;SDS011;60146;52.498;13.462;2023-03-03T19:03:28;19.95;;;7.32;;
72235;SDS011;60146;52.498;13.462;2023-03-03T19:05:54;25.27;;;8.73;;
72235;SDS011;60146;52.498;13.462;2023-03-03T19:08:25;22.97;;;8.07;;
72235;SDS011;60146;52.498;13.462;2023-03-03T19:10:58;20.13;;;7.40;;
72235;SDS011;60146;52.498;13.462;2023-03-03T19:18:27;25.93;;;8.83;;
72235;SDS011;60146;52.498;13.462;2023-03-03T19:31:41;22.75;;;8.18;;
72235;SDS011;60146;52.498;13.462;2023-03-03T19:34:12;23.83;;;7.97;;
72235;SDS011;60146;52.498;13.462;2023-03-03T19:41:41;23.13;;;8.37;;
72235;SDS011;60146;52.498;13.462;2023-03-03T19:46:51;24.90;;;8.93;;
72235;SDS011;60146;52.498;13.462;2023-03-03T19:49:27;24.20;;;8.50;;
72235;SDS011;60146;52.498;13.462;2023-03-03T19:54:34;22.97;;;7.80;;
72235;SDS011;60146;52.498;13.462;2023-03-03T19:57:04;24.77;;;8.30;;
72235;SDS011;60146;52.498;13.462;2023-03-03T19:59:41;25.70;;;7.90;;
72235;SDS011;60146;52.498;13.462;2023-03-03T20:07:14;18.13;;;6.87;;
72235;SDS011;60146;52.498;13.462;2023-03-03T20:10:32;23.53;;;8.27;;
72235;SDS011;60146;52.498;13.462;2023-03-03T20:15:07;25.73;;;8.53;;
72235;SDS011;60146;52.498;13.462;2023-03-03T20:28:04;23.48;;;7.45;;
72235;SDS011;60146;52.498;13.462;2023-03-03T20:36:25;21.57;;;7.53;;
72235;SDS011;60146;52.498;13.462;2023-03-03T20:46:25;20.47;;;6.53;;
72235;SDS011;60146;52.498;13.462;2023-03-03T20:56:35;19.43;;;6.57;;
72235;SDS011;60146;52.498;13.462;2023-03-03T21:04:21;20.17;;;6.90;;
72235;SDS011;60146;52.498;13.462;2023-03-03T21:06:47;20.73;;;7.18;;
72235;SDS011;60146;52.498;13.462;2023-03-03T21:09:26;21.03;;;7.13;;